Terminal Aerodrome Forecast
Issued by NWS Upton, NY

Home | Current Version | Previous Version | Text Only | Print | Product List | Glossary On
Versions: 1 2 3 4 5 6 7 8 9 10 11 12 13 14 15 16 17 18 19 20 21 22 23 24 25 26 27 28 29 30
000
FTUS41 KOKX 221601 AAC
TAFISP
TAF AMD
KISP 221601Z 2216/2312 VRB03KT 6SM BR SCT025 OVC090
      TEMPO 2217/2221 4SM -DZ BR SCT015 OVC025
     FM222100 06006KT 4SM -DZRA BR OVC015
     FM230000 09005KT 6SM BR SCT015 OVC035
     FM230700 15009KT 6SM -SHRA BR SCT008 OVC035
     FM231000 18012G18KT 3SM SHRA BR OVC005 WS020/21050KT=

USA.gov is the U.S. government's official web portal to all federal, state and local government web resources and services.